Time;durP1;ratioP1;P1;durP2;ratioP2;P2;SDS_P1;SDS_P2;PMS_P1;PMS_P2;Temp;Humidity;BMP_temperature;BMP_pressure;BME280_temperature;BME280_humidity;BME280_pressure;Samples;Min_cycle;Max_cycle;Signal;HPM_P1;HPM_P2
2021/05/04 00:01:06;;;;;;;3.35;1.30;;;;;;;31.86;25.96;159555.08;1651236;86;21496;-76
2021/05/04 00:03:39;;;;;;;2.17;1.30;;;;;;;31.84;25.97;159549.73;1677937;85;21218;-76
2021/05/04 00:06:11;;;;;;;1.35;1.02;;;;;;;31.86;25.96;159553.72;1672684;85;21359;-76
2021/05/04 00:08:44;;;;;;;2.25;1.27;;;;;;;31.85;25.98;159551.05;1663236;86;21238;-76
2021/05/04 00:11:17;;;;;;;1.32;0.95;;;;;;;31.87;25.96;159556.39;1649514;86;21248;-76
2021/05/04 00:13:50;;;;;;;1.27;1.00;;;;;;;31.87;25.96;159557.75;1673171;86;21216;-76
2021/05/04 00:16:22;;;;;;;1.22;1.00;;;;;;;31.82;25.96;159543.08;1673364;86;21174;-75
2021/05/04 00:18:54;;;;;;;1.60;1.02;;;;;;;31.88;25.93;159559.06;1673458;86;21260;-76
2021/05/04 00:21:26;;;;;;;1.90;1.42;;;;;;;31.89;25.93;159563.05;1653834;85;21366;-76
2021/05/04 00:23:59;;;;;;;2.22;2.02;;;;;;;31.85;25.93;159552.41;1669573;85;21347;-76
2021/05/04 00:26:32;;;;;;;2.75;1.22;;;;;;;31.77;25.99;159529.72;1666403;85;21869;-76
2021/05/04 00:29:04;;;;;;;1.87;1.17;;;;;;;31.69;26.07;159508.39;1647904;86;21382;-76
2021/05/04 00:31:37;;;;;;;0.95;0.85;;;;;;;31.74;26.02;159523.06;1646615;86;21252;-76
2021/05/04 00:34:09;;;;;;;2.35;0.90;;;;;;;31.73;26.04;159520.39;1672002;85;21406;-76
2021/05/04 00:36:41;;;;;;;2.12;1.10;;;;;;;31.65;26.08;159499.06;1665465;85;21394;-76
2021/05/04 00:39:14;;;;;;;1.12;0.90;;;;;;;31.62;26.12;159489.69;1645968;85;21361;-76
2021/05/04 00:41:46;;;;;;;2.50;1.07;;;;;;;31.57;26.14;159477.69;1630567;86;21372;-76
2021/05/04 00:44:18;;;;;;;1.02;0.98;;;;;;;31.54;26.17;159469.63;1693384;85;21309;-76
2021/05/04 00:46:51;;;;;;;2.02;1.00;;;;;;;31.53;26.19;159465.64;1663195;86;21281;-76
2021/05/04 00:49:23;;;;;;;2.55;1.35;;;;;;;31.54;26.19;159468.31;1690321;85;21320;-75
2021/05/04 00:51:56;;;;;;;1.10;0.98;;;;;;;31.44;26.23;159441.64;1674550;85;21374;-75
2021/05/04 00:54:28;;;;;;;1.25;1.12;;;;;;;31.47;26.21;159450.97;1680113;85;21774;-75
2021/05/04 00:57:01;;;;;;;1.12;1.00;;;;;;;31.47;26.22;159449.66;1677629;85;21378;-76
2021/05/04 00:59:33;;;;;;;1.72;1.62;;;;;;;31.43;26.23;159438.97;1674973;85;21336;-75
2021/05/04 01:02:05;;;;;;;1.57;1.30;;;;;;;31.42;26.24;159436.31;1649410;85;21868;-76
2021/05/04 01:04:39;;;;;;;3.92;1.22;;;;;;;31.49;26.22;159454.95;1638991;86;21207;-76
2021/05/04 01:07:11;;;;;;;1.70;1.20;;;;;;;31.46;26.23;159446.98;1620000;87;21313;-76
2021/05/04 01:09:46;;;;;;;2.87;1.10;;;;;;;31.43;26.23;159438.97;1658974;86;21258;-76
2021/05/04 01:12:18;;;;;;;1.87;1.40;;;;;;;31.36;26.28;159421.64;1663713;86;21250;-75
2021/05/04 01:14:50;;;;;;;3.08;1.37;;;;;;;31.36;26.31;159420.33;1646563;86;21891;-76
2021/05/04 01:17:23;;;;;;;3.12;1.30;;;;;;;31.32;26.30;159409.64;1677507;84;21296;-76
2021/05/04 01:19:55;;;;;;;1.52;1.35;;;;;;;31.29;26.32;159402.98;1652147;85;21380;-76
2021/05/04 01:22:28;;;;;;;2.42;1.35;;;;;;;31.28;26.33;159398.95;1645795;86;21194;-75
2021/05/04 01:25:00;;;;;;;2.02;1.47;;;;;;;31.27;26.34;159396.28;1691637;84;21290;-75
2021/05/04 01:27:32;;;;;;;2.65;1.65;;;;;;;31.20;26.38;159376.28;1655065;86;21241;-75
2021/05/04 01:30:06;;;;;;;2.15;1.50;;;;;;;31.20;26.40;159376.28;1690991;85;21210;-76
2021/05/04 01:32:38;;;;;;;2.67;1.25;;;;;;;31.14;26.43;159361.61;1662172;86;21246;-76
2021/05/04 01:35:11;;;;;;;2.77;1.40;;;;;;;31.19;26.42;159374.97;1662880;86;21210;-75
2021/05/04 01:37:47;;;;;;;2.45;1.30;;;;;;;31.14;26.44;159360.30;1670070;85;21356;-76
2021/05/04 01:40:20;;;;;;;2.27;1.20;;;;;;;31.14;26.42;159361.61;1655270;87;21220;-76
2021/05/04 01:42:53;;;;;;;1.62;1.20;;;;;;;31.12;26.46;159354.97;1649511;85;21206;-76
2021/05/04 01:45:25;;;;;;;1.50;1.20;;;;;;;31.13;26.43;159359.00;1637242;87;21836;-76
2021/05/04 01:47:57;;;;;;;1.67;1.27;;;;;;;31.07;26.48;159342.97;1648093;85;21375;-76
2021/05/04 01:50:30;;;;;;;1.85;1.20;;;;;;;31.07;26.48;159341.66;1647561;86;21238;-77
2021/05/04 01:53:02;;;;;;;1.98;1.10;;;;;;;31.04;26.51;159333.64;1637973;86;21385;-76
2021/05/04 01:55:34;;;;;;;2.90;1.37;;;;;;;31.05;26.52;159336.31;1630424;86;21424;-77
2021/05/04 01:58:07;;;;;;;2.20;1.82;;;;;;;31.01;26.54;159325.58;1638032;86;21398;-76
2021/05/04 02:00:39;;;;;;;2.62;1.90;;;;;;;30.98;26.55;159318.92;1641533;85;21198;-76
2021/05/04 02:03:12;;;;;;;3.22;2.10;;;;;;;31.06;26.51;159340.30;1675595;85;21910;-76
2021/05/04 02:05:46;;;;;;;1.95;1.60;;;;;;;31.01;26.54;159326.94;1620231;87;21254;-76
2021/05/04 02:08:18;;;;;;;1.85;1.30;;;;;;;31.08;26.49;159344.28;1613797;87;21754;-76
2021/05/04 02:10:53;;;;;;;2.10;1.32;;;;;;;31.06;26.52;159340.30;1617551;87;21793;-76
2021/05/04 02:13:25;;;;;;;2.67;1.32;;;;;;;31.04;26.52;159334.95;1676019;85;22704;-76
2021/05/04 02:15:57;;;;;;;1.67;1.15;;;;;;;31.05;26.53;159336.31;1642540;85;21714;-76
2021/05/04 02:18:30;;;;;;;2.58;1.50;;;;;;;31.00;26.56;159324.27;1656248;85;21229;-76
2021/05/04 02:21:03;;;;;;;3.45;1.17;;;;;;;30.98;26.57;159318.92;1646864;85;21338;-76
2021/05/04 02:23:36;;;;;;;1.37;1.22;;;;;;;31.03;26.53;159330.97;1635235;85;21301;-76
2021/05/04 02:26:11;;;;;;;2.77;1.62;;;;;;;31.01;26.56;159326.94;1641520;84;21386;-75
2021/05/04 02:28:43;;;;;;;3.12;1.55;;;;;;;30.95;26.61;159310.91;1668710;84;21359;-76
2021/05/04 02:31:15;;;;;;;4.50;1.80;;;;;;;30.92;26.65;159302.91;1642678;86;21382;-77
2021/05/04 02:33:47;;;;;;;1.95;1.50;;;;;;;30.91;26.65;159300.23;1640841;86;21275;-77
2021/05/04 02:36:19;;;;;;;2.67;1.60;;;;;;;30.84;26.72;159280.28;1640995;86;21335;-77
2021/05/04 02:38:52;;;;;;;2.30;1.30;;;;;;;30.79;26.76;159268.23;1683290;84;21332;-76
2021/05/04 02:41:25;;;;;;;1.55;1.45;;;;;;;30.78;26.76;159265.62;1683277;85;21368;-76
2021/05/04 02:43:57;;;;;;;1.40;1.30;;;;;;;30.86;26.73;159285.56;1646230;87;21248;-76
2021/05/04 02:46:30;;;;;;;1.80;1.57;;;;;;;30.83;26.76;159277.61;1646114;86;21200;-76
2021/05/04 02:49:02;;;;;;;2.95;1.30;;;;;;;30.83;26.76;159278.92;1668386;85;21224;-76
2021/05/04 02:51:34;;;;;;;1.85;1.47;;;;;;;30.81;26.78;159273.58;1671346;86;21201;-76
2021/05/04 02:54:07;;;;;;;1.70;1.30;;;;;;;30.80;26.80;159269.59;1619806;88;21260;-77
2021/05/04 02:56:40;;;;;;;2.37;1.60;;;;;;;30.79;26.83;159266.92;1629220;86;21343;-77
2021/05/04 02:59:13;;;;;;;2.65;1.70;;;;;;;30.75;26.86;159256.25;1667304;86;21366;-77
2021/05/04 03:01:45;;;;;;;1.40;1.30;;;;;;;30.73;26.88;159252.27;1651701;86;21810;-77
2021/05/04 03:04:18;;;;;;;2.20;1.85;;;;;;;30.73;26.90;159252.27;1646079;86;21323;-76
2021/05/04 03:06:50;;;;;;;5.22;1.50;;;;;;;30.83;26.83;159278.92;1648035;86;21991;-77
2021/05/04 03:09:22;;;;;;;2.17;1.20;;;;;;;30.76;26.87;159260.28;1671688;86;21336;-76
2021/05/04 03:11:54;;;;;;;2.08;1.50;;;;;;;30.70;26.93;159242.95;1620039;88;21371;-76
2021/05/04 03:14:27;;;;;;;1.92;1.50;;;;;;;30.71;26.94;159246.92;1591105;90;21845;-77
2021/05/04 03:17:00;;;;;;;2.45;1.32;;;;;;;30.65;26.99;159230.95;1611610;87;21423;-76
2021/05/04 03:19:34;;;;;;;1.92;1.50;;;;;;;30.65;27.02;159230.95;1636191;87;21465;-76
2021/05/04 03:22:06;;;;;;;1.32;1.17;;;;;;;30.57;27.08;159209.59;1636306;87;21204;-76
2021/05/04 03:24:38;;;;;;;3.55;2.45;;;;;;;30.58;27.08;159212.27;1634686;88;21214;-76
2021/05/04 03:27:10;;;;;;;1.77;1.60;;;;;;;30.57;27.10;159209.59;1635302;87;21341;-76
2021/05/04 03:29:44;;;;;;;1.77;1.67;;;;;;;30.60;27.09;159217.61;1657026;85;21287;-76
2021/05/04 03:32:16;;;;;;;1.47;1.37;;;;;;;30.68;27.07;159237.61;1619588;88;21235;-75
2021/05/04 03:34:49;;;;;;;1.72;1.30;;;;;;;30.65;27.10;159229.59;1633678;86;21354;-76
2021/05/04 03:37:22;;;;;;;3.00;1.67;;;;;;;30.62;27.13;159222.95;1660480;85;21343;-77
2021/05/04 03:39:54;;;;;;;1.77;1.30;;;;;;;30.68;27.12;159238.91;1673252;86;21378;-77
2021/05/04 03:42:26;;;;;;;2.60;1.45;;;;;;;30.69;27.12;159241.59;1660416;86;21838;-76
2021/05/04 03:44:58;;;;;;;2.15;1.92;;;;;;;30.73;27.10;159252.27;1673338;86;21826;-77
2021/05/04 03:47:32;;;;;;;2.55;1.80;;;;;;;30.68;27.13;159238.91;1682472;85;21778;-78
2021/05/04 03:50:06;;;;;;;2.27;1.70;;;;;;;30.69;27.16;159241.59;1682872;85;21746;-80
2021/05/04 03:52:39;;;;;;;3.25;1.57;;;;;;;30.68;27.19;159238.91;1643841;85;21704;-77
2021/05/04 03:55:12;;;;;;;1.75;1.52;;;;;;;30.70;27.19;159244.25;1618443;89;21221;-81
2021/05/04 03:57:44;;;;;;;3.42;1.90;;;;;;;30.73;27.19;159252.27;1647903;85;21913;-79
2021/05/04 04:00:18;;;;;;;2.90;1.98;;;;;;;30.70;27.22;159244.25;1655462;85;21378;-80
2021/05/04 04:02:58;;;;;;;2.65;1.70;;;;;;;30.71;27.25;159245.63;1661812;85;22507;-81
2021/05/04 04:05:42;;;;;;;1.85;1.57;;;;;;;30.70;27.25;159244.25;1662498;84;21892;-79
2021/05/04 04:08:20;;;;;;;3.02;1.95;;;;;;;30.73;27.23;159252.27;1662619;84;21211;-83
2021/05/04 04:11:16;;;;;;;2.45;1.70;;;;;;;30.70;27.27;159244.25;1658722;85;21948;-81
2021/05/04 04:14:04;;;;;;;2.60;1.80;;;;;;;30.70;27.27;159244.25;1645563;86;21204;-84
2021/05/04 04:16:39;;;;;;;2.30;1.60;;;;;;;30.82;27.24;159276.25;1644643;86;21679;-82
2021/05/04 04:19:11;;;;;;;3.52;2.00;;;;;;;30.90;27.17;159296.25;1662379;86;21188;-79
2021/05/04 04:21:44;;;;;;;3.77;1.92;;;;;;;30.90;27.14;159297.56;1676453;85;21356;-79
2021/05/04 04:24:17;;;;;;;2.87;1.92;;;;;;;30.87;27.21;159289.61;1663669;85;21861;-78
2021/05/04 04:26:49;;;;;;;2.12;1.57;;;;;;;30.78;27.29;159264.27;1653632;85;21229;-81
2021/05/04 04:29:22;;;;;;;3.00;1.98;;;;;;;30.78;27.31;159265.62;1657098;84;21217;-77
2021/05/04 04:31:54;;;;;;;2.95;1.65;;;;;;;30.83;27.34;159277.61;1663601;86;21783;-78
2021/05/04 04:34:26;;;;;;;3.98;2.02;;;;;;;30.85;27.31;159282.91;1679201;85;21412;-77
2021/05/04 04:36:58;;;;;;;2.95;2.17;;;;;;;30.85;27.33;159282.91;1675659;85;21322;-77
2021/05/04 04:39:31;;;;;;;2.27;2.08;;;;;;;30.84;27.39;159280.28;1655448;86;21336;-78
2021/05/04 04:42:08;;;;;;;3.55;1.92;;;;;;;30.81;27.40;159273.58;1640636;84;21228;-78
2021/05/04 04:44:41;;;;;;;2.95;1.70;;;;;;;30.86;27.43;159286.94;1656337;86;21822;-77
2021/05/04 04:47:13;;;;;;;2.50;1.98;;;;;;;30.88;27.41;159290.91;1660752;86;21429;-78
2021/05/04 04:49:46;;;;;;;3.37;1.80;;;;;;;30.90;27.42;159297.56;1666603;86;21244;-77
2021/05/04 04:52:19;;;;;;;3.77;1.87;;;;;;;30.87;27.46;159289.61;1669566;85;21195;-77
2021/05/04 04:54:51;;;;;;;2.35;1.67;;;;;;;30.87;27.48;159289.61;1646616;86;21297;-77
2021/05/04 04:57:23;;;;;;;2.22;1.82;;;;;;;30.89;27.50;159294.94;1640713;86;21258;-77
2021/05/04 04:59:55;;;;;;;3.25;1.65;;;;;;;30.94;27.46;159306.94;1658524;85;21227;-78
2021/05/04 05:02:27;;;;;;;2.90;2.08;;;;;;;30.96;27.47;159313.59;1625588;86;21261;-76
2021/05/04 05:05:00;;;;;;;3.30;2.00;;;;;;;30.96;27.51;159313.59;1649236;85;21193;-76
2021/05/04 05:07:32;;;;;;;4.15;2.40;;;;;;;30.97;27.51;159316.25;1677355;85;21380;-76
2021/05/04 05:10:04;;;;;;;3.77;2.10;;;;;;;31.04;27.51;159333.64;1679416;85;21863;-77
2021/05/04 05:12:37;;;;;;;2.40;1.80;;;;;;;31.05;27.51;159336.31;1659163;85;21238;-77
2021/05/04 05:15:10;;;;;;;2.80;2.08;;;;;;;31.10;27.51;159349.62;1650349;87;21337;-77
2021/05/04 05:17:43;;;;;;;4.00;2.62;;;;;;;31.13;27.54;159359.00;1663207;84;21333;-77
2021/05/04 05:20:15;;;;;;;3.55;1.90;;;;;;;31.17;27.51;159369.62;1675217;85;21416;-77
2021/05/04 05:22:48;;;;;;;2.92;1.90;;;;;;;31.27;27.48;159394.97;1653625;85;21238;-77
2021/05/04 05:25:20;;;;;;;3.08;2.00;;;;;;;31.29;27.49;159402.98;1679291;85;21334;-77
2021/05/04 05:27:53;;;;;;;2.15;1.60;;;;;;;31.35;27.50;159418.97;1667588;85;21182;-77
2021/05/04 05:30:25;;;;;;;2.67;1.90;;;;;;;31.43;27.47;159438.97;1677778;84;21990;-77
2021/05/04 05:32:57;;;;;;;3.27;2.10;;;;;;;31.44;27.47;159441.64;1685016;85;21178;-77
2021/05/04 05:35:30;;;;;;;3.40;2.10;;;;;;;31.41;27.51;159433.63;1685213;85;21408;-77
2021/05/04 05:38:04;;;;;;;4.95;2.37;;;;;;;31.43;27.53;159438.97;1680293;85;21320;-77
2021/05/04 05:40:37;;;;;;;4.03;2.25;;;;;;;31.49;27.52;159454.95;1661796;85;21784;-77
2021/05/04 05:43:09;;;;;;;4.20;2.52;;;;;;;31.58;27.50;159479.06;1665693;85;21185;-81
2021/05/04 05:45:41;;;;;;;3.90;2.27;;;;;;;31.70;27.44;159512.38;1669619;85;21364;-80
2021/05/04 05:48:14;;;;;;;2.52;2.10;;;;;;;31.76;27.43;159527.05;1673067;85;21186;-80
2021/05/04 05:50:46;;;;;;;2.12;1.92;;;;;;;31.73;27.43;159520.39;1682062;83;21449;-81
2021/05/04 05:53:18;;;;;;;2.35;1.90;;;;;;;31.78;27.40;159532.39;1685909;83;21852;-80
2021/05/04 05:55:51;;;;;;;2.45;2.08;;;;;;;31.80;27.42;159537.73;1676193;85;21237;-80
2021/05/04 05:58:23;;;;;;;3.50;2.35;;;;;;;31.85;27.42;159551.05;1673643;85;21761;-81
2021/05/04 06:00:56;;;;;;;4.12;2.00;;;;;;;31.91;27.37;159568.39;1687402;85;21340;-79
2021/05/04 06:03:30;;;;;;;5.58;2.27;;;;;;;31.95;27.35;159577.72;1677781;85;21301;-79
2021/05/04 06:06:02;;;;;;;2.90;1.98;;;;;;;32.02;27.32;159597.73;1684410;85;21708;-81
2021/05/04 06:08:34;;;;;;;4.62;1.80;;;;;;;32.05;27.34;159605.75;1663281;85;21393;-83
2021/05/04 06:11:06;;;;;;;4.47;2.35;;;;;;;32.13;27.34;159627.14;1662152;86;21369;-82
2021/05/04 06:13:39;;;;;;;3.10;1.80;;;;;;;32.13;27.34;159625.83;1661569;84;21848;-82
2021/05/04 06:16:12;;;;;;;3.15;1.70;;;;;;;32.18;27.32;159640.50;1664506;85;21353;-82
2021/05/04 06:18:45;;;;;;;2.90;1.65;;;;;;;32.22;27.29;159651.20;1665848;84;21342;-86
2021/05/04 06:21:17;;;;;;;3.40;2.15;;;;;;;32.25;27.29;159660.53;1665900;84;21365;-84
2021/05/04 06:23:51;;;;;;;2.75;1.90;;;;;;;32.23;27.33;159652.50;1666451;84;21381;-81
2021/05/04 06:26:24;;;;;;;2.42;1.67;;;;;;;32.24;27.31;159656.50;1667728;84;21420;-84
2021/05/04 06:28:57;;;;;;;2.20;1.90;;;;;;;32.23;27.31;159652.50;1666029;84;21425;-82
2021/05/04 06:31:30;;;;;;;3.08;1.90;;;;;;;32.26;27.31;159661.84;1664206;84;21432;-81
2021/05/04 06:34:04;;;;;;;2.60;1.75;;;;;;;32.24;27.31;159657.86;1643089;86;21351;-80
2021/05/04 06:36:38;;;;;;;2.00;1.50;;;;;;;32.29;27.26;159669.86;1643224;85;21374;-89
2021/05/04 06:39:15;;;;;;;2.50;1.52;;;;;;;32.25;27.28;159659.16;1645044;86;21353;-83
2021/05/04 06:41:53;;;;;;;2.72;1.70;;;;;;;32.37;27.19;159692.56;1645277;86;21350;-83
2021/05/04 06:44:29;;;;;;;4.17;2.20;;;;;;;32.37;27.20;159692.56;1644267;86;21406;-84
2021/05/04 06:47:03;;;;;;;2.83;1.92;;;;;;;32.47;27.13;159719.25;1645297;86;21474;-85
2021/05/04 06:49:38;;;;;;;3.05;1.70;;;;;;;32.52;27.11;159732.56;1645611;86;21453;-87
2021/05/04 06:52:27;;;;;;;3.30;1.80;;;;;;;32.59;27.10;159749.91;1614073;87;21385;-84
2021/05/04 06:55:12;;;;;;;3.77;1.92;;;;;;;32.68;27.07;159774.03;1661020;85;21903;-84
2021/05/04 06:57:53;;;;;;;3.80;1.90;;;;;;;32.78;27.04;159800.72;1645365;85;21881;-86
2021/05/04 07:00:38;;;;;;;4.50;1.80;;;;;;;32.81;27.02;159810.05;1644411;86;21482;-85
2021/05/04 07:03:13;;;;;;;3.35;1.70;;;;;;;32.90;26.95;159832.75;1645349;86;21269;-85
2021/05/04 07:05:54;;;;;;;2.77;1.90;;;;;;;32.95;26.90;159847.44;1645126;86;21362;-86
2021/05/04 07:08:31;;;;;;;3.27;1.70;;;;;;;33.07;26.80;159879.48;1646405;85;21259;-83
2021/05/04 07:11:05;;;;;;;3.42;1.67;;;;;;;33.09;26.76;159883.47;1645159;86;21434;-85
2021/05/04 07:13:40;;;;;;;3.08;1.95;;;;;;;33.14;26.69;159898.22;1644563;86;21193;-85
2021/05/04 07:16:14;;;;;;;4.17;1.70;;;;;;;33.14;26.68;159896.89;1645370;86;21414;-86
2021/05/04 07:18:46;;;;;;;3.37;1.90;;;;;;;33.13;26.69;159895.53;1645383;86;21233;-85
2021/05/04 07:21:20;;;;;;;2.85;1.90;;;;;;;33.12;26.70;159891.55;1645469;86;21366;-86
2021/05/04 07:23:52;;;;;;;2.67;1.70;;;;;;;33.11;26.69;159888.88;1645558;86;21358;-85
2021/05/04 07:26:28;;;;;;;4.15;1.57;;;;;;;33.05;26.72;159874.13;1663096;85;21180;-85
2021/05/04 07:29:02;;;;;;;4.60;1.80;;;;;;;33.07;26.69;159879.48;1663448;85;21243;-84
2021/05/04 07:31:41;;;;;;;2.92;1.77;;;;;;;33.08;26.69;159882.16;1663388;85;21191;-87
2021/05/04 07:34:17;;;;;;;3.33;1.62;;;;;;;33.16;26.65;159902.25;1672245;85;21826;-86
2021/05/04 07:36:49;;;;;;;2.67;1.65;;;;;;;33.14;26.67;159898.22;1675692;84;21167;-84
2021/05/04 07:39:23;;;;;;;4.28;1.80;;;;;;;33.16;26.67;159903.56;1671514;84;21757;-85
2021/05/04 07:41:56;;;;;;;2.17;1.62;;;;;;;33.22;26.63;159920.92;1671480;84;21216;-86
2021/05/04 07:44:30;;;;;;;2.08;1.60;;;;;;;33.28;26.62;159935.61;1672018;84;21261;-85
2021/05/04 07:47:04;;;;;;;2.10;1.65;;;;;;;33.34;26.58;159952.97;1671322;84;21234;-86
2021/05/04 07:49:48;;;;;;;3.08;1.40;;;;;;;33.43;26.52;159975.69;1671696;84;21757;-85
2021/05/04 07:52:25;;;;;;;1.75;1.20;;;;;;;33.54;26.45;160005.06;1670493;84;21206;-85
2021/05/04 07:55:06;;;;;;;3.02;1.82;;;;;;;34.18;26.14;160178.81;1669191;84;21239;-87
2021/05/04 07:57:44;;;;;;;3.60;1.60;;;;;;;33.90;26.19;160102.61;1670440;84;21310;-84
2021/05/04 08:00:35;;;;;;;3.02;1.50;;;;;;;33.72;26.40;160054.55;1667510;84;21274;-84
2021/05/04 08:03:24;;;;;;;2.50;1.42;;;;;;;33.75;26.44;160061.20;1670234;84;21726;-87
2021/05/04 08:06:13;;;;;;;3.97;1.97;;;;;;;33.76;26.41;160065.19;1670651;84;21147;-83
2021/05/04 08:08:45;;;;;;;4.08;2.52;;;;;;;33.80;26.37;160074.53;1671156;84;21277;-84
2021/05/04 08:11:21;;;;;;;2.40;1.65;;;;;;;33.85;26.36;160087.91;1663432;84;21393;-81
2021/05/04 08:13:56;;;;;;;10.03;2.58;;;;;;;33.85;26.32;160087.91;1632958;85;21707;-88
2021/05/04 08:16:52;;;;;;;2.52;1.50;;;;;;;33.87;26.26;160094.58;1664514;84;21251;-87
2021/05/04 08:20:25;;;;;;;2.07;1.70;;;;;;;33.90;26.22;160102.61;1662951;85;21263;-89
2021/05/04 08:23:05;;;;;;;2.42;1.62;;;;;;;33.96;26.25;160118.66;1662188;85;21223;-91
2021/05/04 08:25:48;;;;;;;2.33;1.70;;;;;;;34.05;26.24;160141.34;1662484;85;21464;-90
2021/05/04 08:28:25;;;;;;;4.62;1.70;;;;;;;34.06;26.21;160144.02;1662226;85;21250;-90
2021/05/04 08:30:58;;;;;;;2.75;2.02;;;;;;;34.12;26.12;160160.13;1661494;85;21315;-89
2021/05/04 08:33:31;;;;;;;1.75;1.20;;;;;;;34.08;26.09;160149.38;1662202;85;21394;-89
2021/05/04 08:36:03;;;;;;;3.60;1.60;;;;;;;34.09;26.03;160152.09;1646462;86;21231;-89
2021/05/04 08:38:35;;;;;;;1.50;1.32;;;;;;;34.23;25.89;160190.83;1662595;85;21338;-90
2021/05/04 08:41:10;;;;;;;5.20;1.55;;;;;;;34.25;25.76;160196.19;1662888;85;21838;-90
2021/05/04 08:43:48;;;;;;;4.10;1.62;;;;;;;34.05;25.85;160142.70;1665004;85;21227;-91
2021/05/04 08:46:23;;;;;;;4.78;1.60;;;;;;;34.04;25.81;160138.66;1665037;85;21254;-90
2021/05/04 08:48:55;;;;;;;2.70;1.87;;;;;;;33.95;25.83;160114.63;1664378;85;21184;-91
2021/05/04 08:51:27;;;;;;;1.92;1.50;;;;;;;33.85;25.86;160087.91;1664674;85;21295;-92
2021/05/04 08:54:02;;;;;;;1.70;1.60;;;;;;;33.85;25.85;160087.91;1664103;85;21246;-91
2021/05/04 08:56:35;;;;;;;2.15;1.47;;;;;;;33.84;25.83;160086.59;1664790;85;21274;-91
2021/05/04 08:59:10;;;;;;;2.95;1.57;;;;;;;33.90;25.80;160101.30;1664348;85;21207;-92
2021/05/04 09:01:43;;;;;;;2.55;1.60;;;;;;;33.77;25.84;160067.88;1664938;85;21191;-91
2021/05/04 09:04:42;;;;;;;1.62;1.40;;;;;;;33.81;25.80;160077.22;1663843;85;21238;-90
2021/05/04 09:07:28;;;;;;;1.60;1.45;;;;;;;33.79;25.80;160071.91;1646831;86;21865;-91
2021/05/04 09:19:06;;;;;;;1.92;1.55;;;;;;;33.62;25.88;160027.78;1644840;86;21358;-88
2021/05/04 09:21:38;;;;;;;2.90;2.15;;;;;;;33.55;25.94;160007.73;1642206;86;21740;-90
2021/05/04 09:24:23;;;;;;;2.75;1.70;;;;;;;33.56;25.96;160011.72;1645710;86;21397;-91
2021/05/04 09:27:15;;;;;;;3.15;1.67;;;;;;;33.55;25.97;160007.73;1645297;86;21437;-89
2021/05/04 09:29:58;;;;;;;2.15;1.47;;;;;;;33.52;26.00;159999.72;1645563;86;21422;-89
2021/05/04 09:32:32;;;;;;;1.98;1.30;;;;;;;33.60;25.97;160021.11;1643774;86;21291;-88
2021/05/04 09:35:06;;;;;;;1.85;1.45;;;;;;;33.61;25.95;160023.80;1645024;86;22028;-90
2021/05/04 09:37:41;;;;;;;2.45;1.50;;;;;;;33.72;25.88;160053.17;1644641;86;21238;-89
2021/05/04 09:40:25;;;;;;;1.47;1.20;;;;;;;33.71;25.90;160050.50;1644094;86;21860;-88
2021/05/04 09:43:12;;;;;;;3.22;1.40;;;;;;;33.85;25.84;160087.91;1643547;86;21206;-89
2021/05/04 09:45:56;;;;;;;2.65;1.52;;;;;;;33.89;25.81;160098.62;1643026;86;21195;-87
2021/05/04 09:48:37;;;;;;;2.10;1.25;;;;;;;33.86;25.89;160091.91;1609400;87;21333;-90
2021/05/04 09:51:18;;;;;;;2.75;1.35;;;;;;;33.92;25.87;160106.59;1644170;86;21367;-89
2021/05/04 09:54:00;;;;;;;1.27;1.00;;;;;;;34.05;25.77;160141.34;1634899;86;21191;-88
2021/05/04 09:56:36;;;;;;;3.35;1.40;;;;;;;34.14;25.69;160166.80;1643838;86;21207;-89
2021/05/04 09:59:09;;;;;;;5.22;1.50;;;;;;;34.15;25.62;160170.78;1641889;85;21345;-84
2021/05/04 10:01:41;;;;;;;6.60;1.50;;;;;;;34.13;25.57;160164.11;1632098;86;21860;-89
2021/05/04 10:04:14;;;;;;;2.35;1.50;;;;;;;34.08;25.44;160150.72;1622060;86;21182;-84
2021/05/04 10:06:46;;;;;;;2.70;1.65;;;;;;;34.03;25.42;160136.03;1643950;86;21820;-88
2021/05/04 10:09:18;;;;;;;3.50;1.65;;;;;;;33.94;25.28;160113.31;1643756;86;21244;-88
2021/05/04 10:11:52;;;;;;;3.05;1.85;;;;;;;33.92;25.23;160106.59;1650822;86;21377;-85
2021/05/04 10:14:24;;;;;;;7.35;1.90;;;;;;;33.90;25.30;160101.30;1639609;86;21421;-86
2021/05/04 10:16:58;;;;;;;2.70;1.80;;;;;;;33.88;25.21;160095.94;1644288;86;21389;-87
2021/05/04 10:19:31;;;;;;;2.02;1.50;;;;;;;33.79;25.29;160071.91;1643559;86;21206;-82
2021/05/04 10:22:05;;;;;;;3.67;1.70;;;;;;;33.80;25.31;160074.53;1648486;86;21895;-81
2021/05/04 10:24:37;;;;;;;9.45;4.25;;;;;;;33.82;25.23;160079.89;1642825;86;21214;-81
2021/05/04 10:27:09;;;;;;;9.58;5.70;;;;;;;33.82;25.12;160081.25;1644933;86;21203;-83
2021/05/04 10:29:41;;;;;;;5.25;3.15;;;;;;;33.82;25.17;160079.89;1645486;86;21737;-83
2021/05/04 10:32:14;;;;;;;7.83;1.70;;;;;;;33.66;25.30;160037.17;1602473;86;21222;-83
2021/05/04 10:34:48;;;;;;;2.02;1.40;;;;;;;33.61;25.25;160023.80;1626850;86;21848;-82
2021/05/04 10:37:31;;;;;;;2.22;1.35;;;;;;;33.65;25.15;160034.50;1649435;85;21296;-82
2021/05/04 10:40:05;;;;;;;1.95;1.30;;;;;;;33.64;25.04;160031.81;1653262;85;21330;-80
2021/05/04 10:42:40;;;;;;;1.45;1.20;;;;;;;33.59;25.05;160019.75;1623551;85;21379;-83
2021/05/04 10:45:13;;;;;;;5.45;1.20;;;;;;;33.60;25.03;160022.48;1644813;85;21239;-84
2021/05/04 10:47:49;;;;;;;1.25;1.12;;;;;;;33.65;25.10;160034.50;1653865;86;21366;-89
2021/05/04 10:50:24;;;;;;;4.22;1.75;;;;;;;33.73;25.14;160057.22;1641365;86;21186;-87
2021/05/04 10:53:00;;;;;;;1.92;1.05;;;;;;;33.81;25.14;160078.56;1664659;84;21811;-91
2021/05/04 10:55:58;;;;;;;3.33;1.80;;;;;;;33.98;25.02;160122.66;1642853;86;21206;-87
2021/05/04 10:58:30;;;;;;;2.10;1.17;;;;;;;34.01;24.87;160130.69;1612393;86;21235;-87
2021/05/04 11:01:16;;;;;;;1.52;1.00;;;;;;;34.03;24.70;160137.34;1628786;86;21224;-87
2021/05/04 11:03:46;;;;;;;0.90;0.90;;;;;;;34.05;24.61;160142.70;1667607;86;21233;-87
2021/05/04 11:06:29;;;;;;;2.10;1.15;;;;;;;34.06;24.59;160145.37;1637640;86;21307;-85
2021/05/04 11:09:09;;;;;;;1.07;0.90;;;;;;;34.11;24.59;160157.45;1640540;86;21288;-86
2021/05/04 11:11:45;;;;;;;1.62;1.05;;;;;;;34.20;24.66;160182.86;1660595;86;21205;-87
2021/05/04 11:14:26;;;;;;;3.75;1.15;;;;;;;34.29;24.59;160206.89;1645305;86;21966;-87
2021/05/04 11:17:12;;;;;;;1.35;0.93;;;;;;;34.32;24.45;160216.23;1666614;86;21365;-88
2021/05/04 11:19:44;;;;;;;1.02;0.93;;;;;;;34.43;24.45;160245.63;1663932;86;21379;-88
2021/05/04 11:22:22;;;;;;;5.92;1.47;;;;;;;34.52;24.39;160268.38;1666282;86;21256;-87
2021/05/04 11:24:54;;;;;;;1.22;0.80;;;;;;;34.64;24.24;160300.50;1666228;86;21884;-87
2021/05/04 11:27:29;;;;;;;4.58;1.15;;;;;;;34.70;24.05;160317.88;1664105;86;21206;-86
2021/05/04 11:30:03;;;;;;;1.30;0.98;;;;;;;34.72;23.94;160321.88;1638057;86;21283;-87
2021/05/04 11:32:45;;;;;;;1.70;1.40;;;;;;;34.72;23.82;160323.17;1639762;86;21956;-87
2021/05/04 11:35:20;;;;;;;1.32;1.10;;;;;;;34.65;23.80;160303.17;1640618;86;21818;-87
2021/05/04 11:37:59;;;;;;;1.47;1.10;;;;;;;34.62;24.02;160295.14;1641386;86;21284;-87
2021/05/04 11:40:30;;;;;;;2.22;1.70;;;;;;;34.74;24.03;160328.53;1642888;85;21387;-87
2021/05/04 11:43:02;;;;;;;1.22;0.98;;;;;;;34.80;23.99;160344.61;1642012;85;21766;-86
2021/05/04 11:45:36;;;;;;;1.17;0.88;;;;;;;34.90;23.94;160371.33;1644775;86;21240;-88
2021/05/04 11:48:12;;;;;;;0.90;0.72;;;;;;;35.00;23.98;160398.06;1644860;86;21339;-86
2021/05/04 11:50:52;;;;;;;1.95;1.20;;;;;;;35.13;23.83;160431.56;1645024;85;21889;-88
2021/05/04 11:53:24;;;;;;;3.33;0.82;;;;;;;35.12;23.72;160428.89;1644513;85;21354;-87
2021/05/04 11:56:02;;;;;;;2.50;0.78;;;;;;;35.15;23.45;160439.56;1645079;86;21531;-88
2021/05/04 11:58:36;;;;;;;0.93;0.80;;;;;;;35.16;23.28;160442.23;1611750;87;21414;-87
2021/05/04 12:01:11;;;;;;;1.30;0.93;;;;;;;35.29;23.06;160475.69;1644046;86;21228;-87
2021/05/04 12:03:55;;;;;;;2.22;0.93;;;;;;;35.42;22.96;160511.78;1644726;85;21398;-86
2021/05/04 12:06:29;;;;;;;1.02;0.70;;;;;;;35.30;22.73;160478.38;1645086;86;21406;-87
2021/05/04 12:09:15;;;;;;;2.30;0.93;;;;;;;35.28;22.80;160474.33;1610729;86;21259;-88